NORTHEAST SUFFOLK  -  Rip Current Statement Rip Current Statement        NORTHERN NASSAU  -  Rip Current Statement Rip Current Statement        NORTHERN QUEENS  -  Rip Current Statement Rip Current Statement     Air Quality Alert Air Quality Alert        NORTHWEST SUFFOLK  -  Rip Current Statement Rip Current Statement        SOUTHEAST SUFFOLK  -  Rip Current Statement Rip Current Statement        SOUTHERN NASSAU  -  Rip Current Statement Rip Current Statement        SOUTHERN QUEENS  -  Rip Current Statement Rip Current Statement     Air Quality Alert Air Quality Alert        SOUTHWEST SUFFOLK  -  Rip Current Statement Rip Current Statement      

Active alerts

Northern Queens
  Details for Northern Queens Rip Current Statement  +1 additional alert
Southern Queens
  Details for Southern Queens Rip Current Statement  +1 additional alert
Northern Nassau
  Details for Northern Nassau Rip Current Statement
Southern Nassau
  Details for Southern Nassau Rip Current Statement
Northwest Suffolk
  Details for Northwest Suffolk Rip Current Statement
Southwest Suffolk
  Details for Southwest Suffolk Rip Current Statement
Northeast Suffolk
  Details for Northeast Suffolk Rip Current Statement
Southeast Suffolk
  Details for Southeast Suffolk Rip Current Statement


WXM80 ListenWXM80 Stop

You find our weather info also at:

UK Metoffice

WeatherCloud

Weather Underground

Northeastern Weather Network

AWEKAS

Citizen Weather Observer Program (CWOP)

HAMweather, WeatherForYou, PWS Weather


Weather Underground History page Text

Daily Summary for April 27, 2016 Units:  English    Metric   Both
« Previous Day
Next Day »
Daily Weekly Monthly Yearly Custom
  High: Low: Average:
Temperature: 65.4 °F 43.6 °F 51.7 °F
Dew Point: 46.0 °F 26.4 °F 41.2 °F
Humidity: 91 % 31 % 70 %
Wind Speed: 9.4 mph 0.0 mph 3.3 mph
Wind Gust: 12.7 mph - -
Wind:- - SE
Pressure: 29.93 in 29.83 in -
Precipitation: 0.00 in    
Historical Graphs
 
 
Tabular Data for April 27, 2016
Time Temperature Dew Point Pressure Wind Wind Speed Wind Gust Humidity Rainfall Rate (Hourly)
00:03 45.1 °F 41.2 °F 29.86 in ENE 6.4 mph 8.1 mph 86 % 0.00 in
00:08 45.1 °F 41.2 °F 29.86 in East 4.9 mph 9.2 mph 86 % 0.00 in
00:13 45.1 °F 41.5 °F 29.87 in ENE 6.4 mph 8.1 mph 87 % 0.00 in
00:18 45.1 °F 41.5 °F 29.86 in ENE 6.3 mph 11.5 mph 87 % 0.00 in
00:24 45.1 °F 41.5 °F 29.86 in ENE 6.7 mph 10.4 mph 87 % 0.00 in
00:29 45.0 °F 41.4 °F 29.86 in ENE 9.4 mph 12.7 mph 87 % 0.00 in
00:34 45.0 °F 41.4 °F 29.86 in ENE 5.4 mph 10.4 mph 87 % 0.00 in
00:39 45.0 °F 41.4 °F 29.86 in ENE 6.6 mph 9.2 mph 87 % 0.00 in
00:44 45.0 °F 41.4 °F 29.86 in ENE 4.3 mph 10.4 mph 87 % 0.00 in
00:49 45.0 °F 41.4 °F 29.86 in NE 5.6 mph 9.2 mph 87 % 0.00 in
00:54 44.9 °F 41.3 °F 29.86 in NE 5.0 mph 10.4 mph 87 % 0.00 in
00:59 44.8 °F 40.9 °F 29.86 in East 4.7 mph 9.2 mph 86 % 0.00 in
01:04 44.9 °F 41.0 °F 29.87 in ENE 3.1 mph 7.0 mph 86 % 0.00 in
01:09 44.8 °F 40.9 °F 29.86 in ENE 7.7 mph 10.4 mph 86 % 0.00 in
01:15 44.8 °F 40.9 °F 29.86 in ENE 5.3 mph 9.0 mph 86 % 0.00 in
01:20 44.8 °F 40.9 °F 29.86 in ENE 5.0 mph 5.0 mph 86 % 0.00 in
01:25 44.8 °F 40.9 °F 29.86 in ENE 8.7 mph 10.4 mph 86 % 0.00 in
01:30 44.8 °F 40.9 °F 29.86 in ENE 3.8 mph 8.1 mph 86 % 0.00 in
01:35 44.7 °F 40.5 °F 29.86 in ENE 7.6 mph 11.0 mph 85 % 0.00 in
01:40 44.6 °F 40.4 °F 29.86 in ENE 6.2 mph 9.2 mph 85 % 0.00 in
01:45 44.7 °F 40.5 °F 29.86 in ENE 6.0 mph 9.2 mph 85 % 0.00 in
01:50 44.6 °F 40.4 °F 29.86 in ENE 5.8 mph 9.2 mph 85 % 0.00 in
01:55 44.5 °F 40.3 °F 29.86 in East 5.5 mph 8.1 mph 85 % 0.00 in
02:00 44.4 °F 40.2 °F 29.86 in ENE 5.7 mph 9.2 mph 85 % 0.00 in
02:06 44.4 °F 40.2 °F 29.86 in ENE 3.1 mph 3.5 mph 85 % 0.00 in
02:11 44.3 °F 40.1 °F 29.86 in NE 4.3 mph 8.1 mph 85 % 0.00 in
02:16 44.3 °F 40.4 °F 29.86 in ENE 4.1 mph 9.2 mph 86 % 0.00 in
02:21 44.3 °F 40.4 °F 29.86 in ENE 3.9 mph 8.0 mph 86 % 0.00 in
02:26 44.3 °F 40.4 °F 29.86 in ENE 5.2 mph 8.1 mph 86 % 0.00 in
02:31 44.4 °F 40.5 °F 29.86 in NE 2.3 mph 3.5 mph 86 % 0.00 in
02:36 44.4 °F 40.5 °F 29.86 in NE 1.6 mph 4.6 mph 86 % 0.00 in
02:46 44.4 °F 40.5 °F 29.87 in ENE 2.9 mph 4.0 mph 86 % 0.00 in
02:51 44.4 °F 40.8 °F 29.86 in NNE 1.6 mph 3.5 mph 87 % 0.00 in
02:57 44.4 °F 40.8 °F 29.87 in NE 1.6 mph 3.5 mph 87 % 0.00 in
03:02 44.4 °F 40.8 °F 29.86 in ENE 1.6 mph 8.1 mph 87 % 0.00 in
03:07 44.4 °F 40.8 °F 29.86 in NE 1.2 mph 3.5 mph 87 % 0.00 in
03:12 44.4 °F 40.8 °F 29.87 in NNE 3.7 mph 6.9 mph 87 % 0.00 in
03:17 44.3 °F 40.7 °F 29.88 in NNE 3.3 mph 5.8 mph 87 % 0.00 in
03:22 44.3 °F 40.7 °F 29.88 in NE 3.1 mph 5.8 mph 87 % 0.00 in
03:27 44.3 °F 40.7 °F 29.88 in NNE 2.4 mph 3.5 mph 87 % 0.00 in
03:32 44.3 °F 40.7 °F 29.88 in North 1.5 mph 4.6 mph 87 % 0.00 in
03:42 44.2 °F 40.9 °F 29.89 in ENE 1.0 mph 3.5 mph 88 % 0.00 in
03:48 44.2 °F 40.9 °F 29.89 in ENE 1.9 mph 5.8 mph 88 % 0.00 in
03:53 44.2 °F 40.9 °F 29.89 in ENE 3.6 mph 4.6 mph 88 % 0.00 in
03:58 44.2 °F 40.9 °F 29.89 in ENE 0.8 mph 2.3 mph 88 % 0.00 in
04:03 44.1 °F 40.8 °F 29.89 in ENE 0.8 mph 2.3 mph 88 % 0.00 in
04:08 44.1 °F 40.8 °F 29.89 in Calm   1.2 mph 88 % 0.00 in
04:13 44.1 °F 40.8 °F 29.89 in NE 0.3 mph 1.2 mph 88 % 0.00 in
04:18 44.0 °F 40.7 °F 29.90 in NE 0.3 mph 2.3 mph 88 % 0.00 in
04:23 43.9 °F 40.6 °F 29.90 in NE 0.2 mph 1.0 mph 88 % 0.00 in
04:28 43.8 °F 40.8 °F 29.90 in ENE 0.7 mph 2.3 mph 89 % 0.00 in
04:33 43.8 °F 40.8 °F 29.89 in NNE 1.7 mph 3.5 mph 89 % 0.00 in
04:39 43.7 °F 40.7 °F 29.89 in NNE 2.2 mph 4.0 mph 89 % 0.00 in
04:44 43.6 °F 40.9 °F 29.89 in NNE 3.2 mph 4.6 mph 90 % 0.00 in
04:49 43.6 °F 40.9 °F 29.88 in NNE 3.4 mph 4.6 mph 90 % 0.00 in
04:54 43.6 °F 40.9 °F 29.89 in NNE 1.5 mph 3.5 mph 90 % 0.00 in
04:59 43.7 °F 41.0 °F 29.89 in NNE 1.5 mph 2.3 mph 90 % 0.00 in
05:04 43.7 °F 41.0 °F 29.89 in NNE 4.1 mph 6.0 mph 90 % 0.00 in
05:09 43.8 °F 41.3 °F 29.89 in North 4.1 mph 5.8 mph 91 % 0.00 in
05:14 43.9 °F 41.2 °F 29.89 in NE 5.4 mph 8.1 mph 90 % 0.00 in
05:19 44.0 °F 41.3 °F 29.90 in NNE 4.6 mph 6.9 mph 90 % 0.00 in
05:24 44.0 °F 41.3 °F 29.89 in North 4.9 mph 6.9 mph 90 % 0.00 in
05:30 44.1 °F 41.4 °F 29.90 in NNE 2.8 mph 4.6 mph 90 % 0.00 in
05:35 44.2 °F 41.5 °F 29.90 in NNE 1.3 mph 4.0 mph 90 % 0.00 in
05:40 44.2 °F 41.5 °F 29.90 in North 2.6 mph 4.6 mph 90 % 0.00 in
05:45 44.2 °F 41.5 °F 29.90 in North 3.2 mph 5.8 mph 90 % 0.00 in
05:55 44.2 °F 41.5 °F 29.90 in NNE 1.5 mph 3.5 mph 90 % 0.00 in
06:00 44.2 °F 41.5 °F 29.90 in NNE 2.0 mph 3.5 mph 90 % 0.00 in
06:05 44.2 °F 41.5 °F 29.90 in NNE 3.5 mph 4.6 mph 90 % 0.00 in
06:16 44.2 °F 41.5 °F 29.90 in NNE 0.1 mph 1.0 mph 90 % 0.00 in
06:21 44.3 °F 41.6 °F 29.90 in ENE 2.1 mph 3.5 mph 90 % 0.00 in
06:26 44.4 °F 41.7 °F 29.90 in Calm     90 % 0.00 in
06:31 44.5 °F 41.7 °F 29.90 in NNE 1.0 mph 2.3 mph 90 % 0.00 in
06:36 44.7 °F 41.9 °F 29.90 in NE 0.2 mph 1.2 mph 90 % 0.00 in
06:41 44.8 °F 42.0 °F 29.90 in Calm     90 % 0.00 in
06:46 44.9 °F 42.1 °F 29.90 in NNE 0.3 mph 3.0 mph 90 % 0.00 in
06:51 45.0 °F 42.0 °F 29.90 in NE 1.5 mph 2.3 mph 89 % 0.00 in
06:56 45.1 °F 42.1 °F 29.91 in NE 0.7 mph 3.5 mph 89 % 0.00 in
07:01 45.2 °F 42.2 °F 29.91 in NE 0.3 mph 1.2 mph 89 % 0.00 in
07:07 45.3 °F 42.2 °F 29.91 in NNE 2.6 mph 3.5 mph 89 % 0.00 in
07:12 45.4 °F 42.3 °F 29.91 in NNE 0.4 mph 3.5 mph 89 % 0.00 in
07:17 45.5 °F 42.4 °F 29.91 in NNE 3.5 mph 5.8 mph 89 % 0.00 in
07:22 45.6 °F 42.3 °F 29.92 in North 3.9 mph 4.6 mph 88 % 0.00 in
07:27 45.7 °F 42.1 °F 29.92 in North 1.3 mph 3.5 mph 87 % 0.00 in
07:32 45.9 °F 42.2 °F 29.92 in NNE 3.3 mph 4.0 mph 87 % 0.00 in
07:37 46.1 °F 42.1 °F 29.92 in NNE 1.7 mph 3.5 mph 86 % 0.00 in
07:42 46.3 °F 42.3 °F 29.91 in East 3.5 mph 8.0 mph 86 % 0.00 in
07:47 46.3 °F 42.0 °F 29.92 in NE 1.4 mph 3.0 mph 85 % 0.00 in
07:52 46.5 °F 42.5 °F 29.92 in North 1.8 mph 3.5 mph 86 % 0.00 in
07:58 46.7 °F 42.4 °F 29.92 in North 2.3 mph 4.6 mph 85 % 0.00 in
08:03 46.9 °F 42.3 °F 29.91 in ENE 1.6 mph 3.5 mph 84 % 0.00 in
08:08 46.9 °F 42.0 °F 29.91 in North 2.9 mph 4.6 mph 83 % 0.00 in
08:13 47.0 °F 42.1 °F 29.92 in NNE 5.4 mph 10.0 mph 83 % 0.00 in
08:18 47.0 °F 41.8 °F 29.91 in NE 2.0 mph 3.5 mph 82 % 0.00 in
08:23 47.2 °F 42.3 °F 29.92 in NE 3.1 mph 4.6 mph 83 % 0.00 in
08:28 47.4 °F 42.2 °F 29.91 in NE 2.2 mph 3.5 mph 82 % 0.00 in
08:33 47.9 °F 43.0 °F 29.91 in NNE 4.2 mph 8.1 mph 83 % 0.00 in
08:38 48.3 °F 42.7 °F 29.91 in North 6.6 mph 10.4 mph 81 % 0.00 in
08:43 48.7 °F 42.8 °F 29.91 in North 5.7 mph 10.4 mph 80 % 0.00 in
08:49 49.1 °F 43.2 °F 29.91 in NNE 4.4 mph 6.0 mph 80 % 0.00 in
08:54 49.6 °F 43.7 °F 29.91 in NNE 3.5 mph 5.8 mph 80 % 0.00 in
08:59 49.9 °F 42.6 °F 29.91 in NE 4.2 mph 8.1 mph 76 % 0.00 in
09:04 50.3 °F 43.4 °F 29.91 in NE 3.1 mph 4.6 mph 77 % 0.00 in
09:09 50.8 °F 43.8 °F 29.91 in NE 3.3 mph 8.1 mph 77 % 0.00 in
09:14 50.9 °F 42.2 °F 29.92 in ENE 2.9 mph 6.9 mph 72 % 0.00 in
09:19 51.2 °F 43.2 °F 29.92 in NNE 4.6 mph 6.9 mph 74 % 0.00 in
09:24 51.6 °F 43.2 °F 29.92 in NNE 2.7 mph 5.0 mph 73 % 0.00 in
09:29 51.8 °F 42.7 °F 29.92 in NE 2.0 mph 8.1 mph 71 % 0.00 in
09:34 51.8 °F 43.1 °F 29.92 in NE 3.5 mph 8.1 mph 72 % 0.00 in
09:40 51.6 °F 42.1 °F 29.93 in ENE 3.5 mph 6.9 mph 70 % 0.00 in
09:45 51.7 °F 42.2 °F 29.93 in ENE 3.4 mph 5.0 mph 70 % 0.00 in
09:50 51.9 °F 41.7 °F 29.93 in ENE 4.1 mph 7.0 mph 68 % 0.00 in
09:55 52.0 °F 42.5 °F 29.93 in NE 3.4 mph 4.6 mph 70 % 0.00 in
10:00 52.5 °F 42.2 °F 29.93 in East 1.7 mph 4.6 mph 68 % 0.00 in
10:05 52.9 °F 42.2 °F 29.93 in East 2.4 mph 4.6 mph 67 % 0.00 in
10:10 52.9 °F 42.6 °F 29.93 in ESE 1.8 mph 4.6 mph 68 % 0.00 in
10:15 53.1 °F 41.6 °F 29.93 in ENE 1.3 mph 4.0 mph 65 % 0.00 in
10:20 53.3 °F 41.4 °F 29.93 in East 1.4 mph 3.5 mph 64 % 0.00 in
10:25 53.4 °F 41.1 °F 29.93 in East 1.5 mph 3.5 mph 63 % 0.00 in
10:31 53.9 °F 40.8 °F 29.93 in ENE 3.6 mph 7.0 mph 61 % 0.00 in
10:36 53.7 °F 40.6 °F 29.93 in ENE 2.5 mph 4.6 mph 61 % 0.00 in
10:46 54.2 °F 39.3 °F 29.93 in ENE 5.1 mph 7.0 mph 57 % 0.00 in
10:51 54.0 °F 40.0 °F 29.92 in NE 3.0 mph 5.0 mph 59 % 0.00 in
10:56 54.0 °F 41.3 °F 29.93 in NE 4.4 mph 6.9 mph 62 % 0.00 in
11:01 53.9 °F 37.1 °F 29.93 in ENE 3.9 mph 6.9 mph 53 % 0.00 in
11:06 53.9 °F 37.6 °F 29.93 in ENE 3.2 mph 4.0 mph 54 % 0.00 in
11:11 53.7 °F 39.3 °F 29.92 in ENE 3.6 mph 6.9 mph 58 % 0.00 in
11:16 54.1 °F 38.3 °F 29.92 in NE 2.0 mph 5.8 mph 55 % 0.00 in
11:22 54.2 °F 33.9 °F 29.92 in ENE 4.3 mph 6.0 mph 46 % 0.00 in
11:27 54.8 °F 35.5 °F 29.92 in ENE 3.2 mph 4.6 mph 48 % 0.00 in
11:37 55.0 °F 29.2 °F 29.92 in NE 4.5 mph 8.1 mph 37 % 0.00 in
11:42 55.5 °F 31.5 °F 29.92 in East 1.8 mph 3.5 mph 40 % 0.00 in
11:47 55.9 °F 27.2 °F 29.92 in ENE 3.6 mph 5.8 mph 33 % 0.00 in
11:52 56.2 °F 30.9 °F 29.91 in ENE 3.2 mph 7.0 mph 38 % 0.00 in
11:57 56.3 °F 28.3 °F 29.91 in East 3.3 mph 8.1 mph 34 % 0.00 in
12:02 56.7 °F 26.4 °F 29.91 in ENE 4.9 mph 8.1 mph 31 % 0.00 in
12:07 56.6 °F 29.9 °F 29.91 in ENE 2.4 mph 7.0 mph 36 % 0.00 in
12:13 56.6 °F 28.5 °F 29.91 in ENE 2.1 mph 3.5 mph 34 % 0.00 in
12:18 57.1 °F 31.0 °F 29.91 in East 2.3 mph 3.5 mph 37 % 0.00 in
12:23 57.9 °F 32.4 °F 29.91 in ENE 2.2 mph 4.0 mph 38 % 0.00 in
12:28 57.9 °F 28.9 °F 29.90 in ENE 4.2 mph 6.9 mph 33 % 0.00 in
12:33 57.6 °F 32.2 °F 29.90 in ENE 3.2 mph 7.0 mph 38 % 0.00 in
12:48 57.3 °F 31.2 °F 29.90 in NE 5.5 mph 7.0 mph 37 % 0.00 in
12:53 57.4 °F 31.3 °F 29.90 in ENE 2.7 mph 4.6 mph 37 % 0.00 in
12:58 57.7 °F 29.5 °F 29.90 in ENE 3.5 mph 6.0 mph 34 % 0.00 in
13:04 57.5 °F 27.8 °F 29.90 in ENE 3.5 mph 7.0 mph 32 % 0.00 in
13:09 57.3 °F 29.1 °F 29.90 in NNE 3.6 mph 4.6 mph 34 % 0.00 in
13:14 57.4 °F 31.3 °F 29.90 in NE 4.1 mph 8.1 mph 37 % 0.00 in
13:19 57.4 °F 28.5 °F 29.90 in NW 1.9 mph 3.5 mph 33 % 0.00 in
13:24 57.2 °F 28.3 °F 29.90 in NE 2.9 mph 4.6 mph 33 % 0.00 in
13:29 57.6 °F 31.5 °F 29.90 in East 3.1 mph 5.8 mph 37 % 0.00 in
13:34 58.0 °F 33.8 °F 29.90 in East 2.6 mph 5.8 mph 40 % 0.00 in
13:39 58.4 °F 33.5 °F 29.89 in ENE 3.0 mph 4.6 mph 39 % 0.00 in
13:44 59.2 °F 37.3 °F 29.88 in ENE 3.2 mph 4.0 mph 44 % 0.00 in
13:49 59.7 °F 32.0 °F 29.89 in NE 3.1 mph 4.6 mph 35 % 0.00 in
13:55 60.5 °F 35.4 °F 29.89 in North 0.7 mph 3.5 mph 39 % 0.00 in
14:00 61.4 °F 37.5 °F 29.88 in North 1.0 mph 4.6 mph 41 % 0.00 in
14:05 62.2 °F 36.9 °F 29.88 in NW 3.0 mph 5.0 mph 39 % 0.00 in
14:10 62.7 °F 36.7 °F 29.88 in WNW 2.9 mph 5.8 mph 38 % 0.00 in
14:15 63.2 °F 36.5 °F 29.88 in WSW 1.3 mph 4.0 mph 37 % 0.00 in
14:20 63.5 °F 34.6 °F 29.88 in SW 1.4 mph 4.6 mph 34 % 0.00 in
14:25 63.5 °F 35.3 °F 29.88 in West 5.4 mph 8.1 mph 35 % 0.00 in
14:30 63.7 °F 36.2 °F 29.87 in West 1.5 mph 6.9 mph 36 % 0.00 in
14:35 64.0 °F 36.5 °F 29.87 in NW 0.9 mph 4.6 mph 36 % 0.00 in
14:40 64.3 °F 36.8 °F 29.87 in WNW 3.0 mph 4.6 mph 36 % 0.00 in
14:46 64.7 °F 37.8 °F 29.86 in SW 5.3 mph 9.2 mph 37 % 0.00 in
14:56 64.9 °F 37.3 °F 29.86 in NW 2.2 mph 4.6 mph 36 % 0.00 in
15:01 65.2 °F 37.6 °F 29.85 in SW 4.1 mph 7.0 mph 36 % 0.00 in
15:06 65.4 °F 43.5 °F 29.86 in ESE 2.1 mph 3.5 mph 45 % 0.00 in
15:11 64.9 °F 44.2 °F 29.86 in ESE 0.7 mph 2.0 mph 47 % 0.00 in
15:16 64.7 °F 42.3 °F 29.85 in WSW 3.9 mph 5.8 mph 44 % 0.00 in
15:21 64.8 °F 41.8 °F 29.85 in West 0.8 mph 2.3 mph 43 % 0.00 in
15:26 64.9 °F 45.3 °F 29.85 in SSE 2.3 mph 4.6 mph 49 % 0.00 in
15:31 64.4 °F 44.3 °F 29.86 in SW 0.9 mph 4.6 mph 48 % 0.00 in
15:37 64.4 °F 44.8 °F 29.85 in WSW 3.0 mph 6.9 mph 49 % 0.00 in
15:42 63.7 °F 44.2 °F 29.86 in SSW 1.1 mph 8.1 mph 49 % 0.00 in
15:47 63.4 °F 44.9 °F 29.85 in SSW 1.3 mph 3.5 mph 51 % 0.00 in
15:52 63.5 °F 44.5 °F 29.85 in SSW 5.4 mph 8.1 mph 50 % 0.00 in
15:57 63.6 °F 44.6 °F 29.85 in SW 4.5 mph 6.9 mph 50 % 0.00 in
16:02 63.6 °F 45.1 °F 29.85 in SW 2.0 mph 3.5 mph 51 % 0.00 in
16:07 63.7 °F 44.2 °F 29.85 in SSE 1.0 mph 4.6 mph 49 % 0.00 in
16:12 63.2 °F 44.8 °F 29.84 in SW 5.6 mph 9.2 mph 51 % 0.00 in
16:18 63.2 °F 44.2 °F 29.85 in WSW 3.6 mph 9.2 mph 50 % 0.00 in
16:23 63.2 °F 45.3 °F 29.85 in WSW 2.1 mph 8.0 mph 52 % 0.00 in
16:28 63.4 °F 45.5 °F 29.85 in SW 2.1 mph 7.0 mph 52 % 0.00 in
16:33 63.5 °F 45.6 °F 29.85 in SW 6.0 mph 10.4 mph 52 % 0.00 in
16:38 63.5 °F 45.0 °F 29.85 in SSW 5.3 mph 8.1 mph 51 % 0.00 in
16:43 63.5 °F 45.6 °F 29.85 in SSW 3.5 mph 5.0 mph 52 % 0.00 in
16:48 63.5 °F 45.6 °F 29.85 in South 5.5 mph 9.0 mph 52 % 0.00 in
16:53 62.6 °F 44.7 °F 29.86 in South 4.0 mph 6.0 mph 52 % 0.00 in
16:58 61.6 °F 44.8 °F 29.86 in South 4.9 mph 8.1 mph 54 % 0.00 in
17:03 61.1 °F 45.3 °F 29.85 in South 3.3 mph 4.0 mph 56 % 0.00 in
17:09 60.9 °F 45.1 °F 29.85 in South 4.9 mph 8.1 mph 56 % 0.00 in
17:14 60.7 °F 45.8 °F 29.85 in SSW 3.7 mph 5.8 mph 58 % 0.00 in
17:19 60.8 °F 45.5 °F 29.85 in South 5.2 mph 6.9 mph 57 % 0.00 in
17:24 60.7 °F 45.8 °F 29.85 in SW 3.0 mph 6.9 mph 58 % 0.00 in
17:34 60.6 °F 45.7 °F 29.85 in SSW 4.1 mph 7.0 mph 58 % 0.00 in
17:39 60.2 °F 45.4 °F 29.85 in South 3.9 mph 8.0 mph 58 % 0.00 in
17:44 59.6 °F 45.2 °F 29.85 in SSE 1.8 mph 4.0 mph 59 % 0.00 in
17:49 59.2 °F 45.3 °F 29.85 in South 3.8 mph 5.0 mph 60 % 0.00 in
17:54 58.9 °F 45.0 °F 29.85 in SSW 5.8 mph 10.0 mph 60 % 0.00 in
18:00 58.6 °F 44.8 °F 29.84 in SSW 2.1 mph 5.8 mph 60 % 0.00 in
18:05 58.4 °F 45.0 °F 29.84 in SSW 3.3 mph 4.0 mph 61 % 0.00 in
18:10 58.2 °F 44.8 °F 29.84 in SSW 3.8 mph 5.8 mph 61 % 0.00 in
18:15 58.0 °F 44.6 °F 29.84 in South 2.6 mph 7.0 mph 61 % 0.00 in
18:20 57.8 °F 44.9 °F 29.84 in South 1.4 mph 5.8 mph 62 % 0.00 in
18:25 57.6 °F 44.7 °F 29.84 in SSW 5.0 mph 8.0 mph 62 % 0.00 in
18:30 57.3 °F 45.2 °F 29.84 in SSW 5.4 mph 6.9 mph 64 % 0.00 in
18:35 57.1 °F 44.6 °F 29.84 in SW 4.1 mph 8.1 mph 63 % 0.00 in
18:40 56.8 °F 44.3 °F 29.84 in South 3.8 mph 5.8 mph 63 % 0.00 in
18:45 56.6 °F 44.6 °F 29.84 in South 4.7 mph 6.9 mph 64 % 0.00 in
18:51 56.3 °F 44.7 °F 29.84 in South 3.1 mph 6.9 mph 65 % 0.00 in
18:56 56.1 °F 44.5 °F 29.84 in SW 3.3 mph 6.9 mph 65 % 0.00 in
19:01 55.9 °F 44.3 °F 29.84 in SSW 2.8 mph 4.6 mph 65 % 0.00 in
19:06 55.6 °F 44.4 °F 29.83 in South 4.6 mph 8.1 mph 66 % 0.00 in
19:11 55.2 °F 44.0 °F 29.83 in SSW 3.6 mph 6.0 mph 66 % 0.00 in
19:16 54.9 °F 43.7 °F 29.83 in South 2.6 mph 3.5 mph 66 % 0.00 in
19:21 54.5 °F 43.8 °F 29.83 in SSW 2.7 mph 5.8 mph 67 % 0.00 in
19:26 54.2 °F 43.9 °F 29.83 in SSE 3.6 mph 6.9 mph 68 % 0.00 in
19:31 53.9 °F 43.6 °F 29.83 in SSW 5.2 mph 8.1 mph 68 % 0.00 in
19:36 53.5 °F 43.6 °F 29.83 in South 2.9 mph 5.8 mph 69 % 0.00 in
19:42 53.2 °F 43.3 °F 29.83 in South 4.8 mph 6.0 mph 69 % 0.00 in
19:47 52.9 °F 43.4 °F 29.84 in SSW 2.7 mph 5.8 mph 70 % 0.00 in
19:52 52.5 °F 43.4 °F 29.84 in SW 4.7 mph 7.0 mph 71 % 0.00 in
19:57 52.1 °F 43.0 °F 29.84 in SSW 5.0 mph 6.9 mph 71 % 0.00 in
20:07 51.5 °F 42.8 °F 29.84 in SSW 3.5 mph 5.8 mph 72 % 0.00 in
20:12 51.3 °F 42.9 °F 29.84 in SSW 2.2 mph 4.0 mph 73 % 0.00 in
20:17 51.1 °F 42.7 °F 29.84 in South 2.5 mph 5.8 mph 73 % 0.00 in
20:22 50.8 °F 42.8 °F 29.84 in SSW 1.7 mph 4.6 mph 74 % 0.00 in
20:27 50.6 °F 42.6 °F 29.84 in South 3.2 mph 4.6 mph 74 % 0.00 in
20:33 50.4 °F 42.8 °F 29.84 in SSW 3.6 mph 6.9 mph 75 % 0.00 in
20:38 50.3 °F 42.7 °F 29.84 in SSW 3.4 mph 5.8 mph 75 % 0.00 in
20:43 50.1 °F 42.8 °F 29.84 in SSW 3.5 mph 4.6 mph 76 % 0.00 in
20:48 50.0 °F 42.7 °F 29.84 in SW 2.8 mph 5.8 mph 76 % 0.00 in
20:53 49.9 °F 42.6 °F 29.84 in SSW 4.1 mph 6.0 mph 76 % 0.00 in
20:58 49.7 °F 42.4 °F 29.85 in SSW 2.3 mph 4.6 mph 76 % 0.00 in
21:03 49.6 °F 42.7 °F 29.84 in SSW 2.6 mph 6.9 mph 77 % 0.00 in
21:08 49.5 °F 42.6 °F 29.85 in SSW 5.0 mph 8.0 mph 77 % 0.00 in
21:18 49.4 °F 42.8 °F 29.85 in SSW 3.4 mph 5.8 mph 78 % 0.00 in
21:24 49.3 °F 43.1 °F 29.85 in SSW 5.3 mph 10.4 mph 79 % 0.00 in
21:29 49.3 °F 43.1 °F 29.86 in SSW 1.6 mph 5.8 mph 79 % 0.00 in
21:34 49.3 °F 43.4 °F 29.86 in SSW 4.0 mph 6.9 mph 80 % 0.00 in
21:44 49.3 °F 43.7 °F 29.87 in SW 4.4 mph 8.1 mph 81 % 0.00 in
21:49 49.3 °F 43.7 °F 29.87 in SW 5.1 mph 9.0 mph 81 % 0.00 in
21:54 49.4 °F 44.1 °F 29.87 in WSW 5.6 mph 8.1 mph 82 % 0.00 in
21:59 49.4 °F 44.1 °F 29.87 in SSW 3.2 mph 5.0 mph 82 % 0.00 in
22:04 49.4 °F 44.1 °F 29.87 in South 2.9 mph 6.0 mph 82 % 0.00 in
22:09 49.4 °F 44.1 °F 29.87 in West 3.1 mph 3.5 mph 82 % 0.00 in
22:15 49.3 °F 44.4 °F 29.87 in SW 2.5 mph 6.9 mph 83 % 0.00 in
22:20 49.3 °F 44.4 °F 29.87 in WSW 3.1 mph 5.8 mph 83 % 0.00 in
22:25 49.3 °F 44.7 °F 29.87 in WSW 6.0 mph 8.1 mph 84 % 0.00 in
22:30 49.4 °F 44.8 °F 29.87 in SW 3.3 mph 5.8 mph 84 % 0.00 in
22:35 49.4 °F 45.1 °F 29.87 in West 4.7 mph 9.0 mph 85 % 0.00 in
22:40 49.4 °F 45.1 °F 29.87 in SSW 2.2 mph 4.0 mph 85 % 0.00 in
22:45 49.5 °F 45.2 °F 29.87 in SW 3.3 mph 4.0 mph 85 % 0.00 in
22:50 49.5 °F 45.2 °F 29.87 in SW 3.9 mph 5.8 mph 85 % 0.00 in
22:55 49.5 °F 45.5 °F 29.87 in SW 4.7 mph 6.0 mph 86 % 0.00 in
23:00 49.5 °F 45.5 °F 29.87 in SSW 1.9 mph 6.0 mph 86 % 0.00 in
23:06 49.6 °F 45.6 °F 29.87 in SSW 4.0 mph 8.1 mph 86 % 0.00 in
23:11 49.6 °F 45.6 °F 29.87 in SSW 2.7 mph 5.8 mph 86 % 0.00 in
23:16 49.6 °F 45.6 °F 29.87 in SSW 2.0 mph 3.5 mph 86 % 0.00 in
23:21 49.7 °F 45.7 °F 29.88 in WSW 2.8 mph 4.6 mph 86 % 0.00 in
23:26 49.7 °F 45.7 °F 29.88 in SW 3.4 mph 4.6 mph 86 % 0.00 in
23:31 49.7 °F 45.7 °F 29.88 in SW 1.7 mph 3.0 mph 86 % 0.00 in
23:36 49.7 °F 45.7 °F 29.88 in SW 2.9 mph 5.8 mph 86 % 0.00 in
23:41 49.7 °F 45.7 °F 29.88 in WSW 2.9 mph 5.0 mph 86 % 0.00 in
23:46 49.6 °F 45.6 °F 29.88 in SSW 2.9 mph 4.6 mph 86 % 0.00 in
23:51 49.7 °F 45.7 °F 29.88 in SW 3.3 mph 4.6 mph 86 % 0.00 in
23:57 49.7 °F 46.0 °F 29.88 in SSW 3.8 mph 5.8 mph 87 % 0.00 in
Crab Meadow Weather
Compliments of Weather Underground - 3 mb

Script developed by  Jim McMurry - jmcmurry@mwt.net Adapted for the template by  Wim van der Kuil - Leuven-Template.eu

Astronomy: Venus rotates east to west.